sensor_id;sensor_type;location;lat;lon;timestamp;P1;durP1;ratioP1;P2;durP2;ratioP2
73168;SDS011;61379;59.732;30.468;2023-11-22T00:01:03;11.10;;;6.47;;
73168;SDS011;61379;59.732;30.468;2023-11-22T00:03:31;8.13;;;6.38;;
73168;SDS011;61379;59.732;30.468;2023-11-22T00:05:57;9.45;;;6.40;;
73168;SDS011;61379;59.732;30.468;2023-11-22T00:08:24;8.40;;;7.50;;
73168;SDS011;61379;59.732;30.468;2023-11-22T00:10:51;7.20;;;5.82;;
73168;SDS011;61379;59.732;30.468;2023-11-22T00:13:18;10.02;;;6.68;;
73168;SDS011;61379;59.732;30.468;2023-11-22T00:15:45;8.73;;;7.15;;
73168;SDS011;61379;59.732;30.468;2023-11-22T00:18:14;7.57;;;5.68;;
73168;SDS011;61379;59.732;30.468;2023-11-22T00:20:40;6.85;;;5.95;;
73168;SDS011;61379;59.732;30.468;2023-11-22T00:23:07;8.13;;;5.28;;
73168;SDS011;61379;59.732;30.468;2023-11-22T00:25:35;7.78;;;5.88;;
73168;SDS011;61379;59.732;30.468;2023-11-22T00:28:01;6.97;;;5.63;;
73168;SDS011;61379;59.732;30.468;2023-11-22T00:30:31;9.57;;;6.40;;
73168;SDS011;61379;59.732;30.468;2023-11-22T00:32:58;7.20;;;5.65;;
73168;SDS011;61379;59.732;30.468;2023-11-22T00:35:26;8.45;;;5.35;;
73168;SDS011;61379;59.732;30.468;2023-11-22T00:37:52;9.07;;;6.18;;
73168;SDS011;61379;59.732;30.468;2023-11-22T00:40:19;7.63;;;5.63;;
73168;SDS011;61379;59.732;30.468;2023-11-22T00:42:46;7.95;;;7.05;;
73168;SDS011;61379;59.732;30.468;2023-11-22T00:45:13;9.93;;;7.15;;
73168;SDS011;61379;59.732;30.468;2023-11-22T00:47:39;8.68;;;7.50;;
73168;SDS011;61379;59.732;30.468;2023-11-22T00:50:07;10.45;;;6.45;;
73168;SDS011;61379;59.732;30.468;2023-11-22T00:52:35;7.57;;;5.47;;
73168;SDS011;61379;59.732;30.468;2023-11-22T00:55:02;8.70;;;6.35;;
73168;SDS011;61379;59.732;30.468;2023-11-22T00:57:30;7.25;;;5.75;;
73168;SDS011;61379;59.732;30.468;2023-11-22T00:59:57;8.98;;;5.57;;
73168;SDS011;61379;59.732;30.468;2023-11-22T01:02:24;10.20;;;6.63;;
73168;SDS011;61379;59.732;30.468;2023-11-22T01:04:51;8.88;;;5.97;;
73168;SDS011;61379;59.732;30.468;2023-11-22T01:07:17;7.03;;;5.85;;
73168;SDS011;61379;59.732;30.468;2023-11-22T01:09:45;7.72;;;5.13;;
73168;SDS011;61379;59.732;30.468;2023-11-22T01:12:12;7.68;;;5.72;;
73168;SDS011;61379;59.732;30.468;2023-11-22T01:14:39;9.75;;;4.85;;
73168;SDS011;61379;59.732;30.468;2023-11-22T01:17:06;11.63;;;6.55;;
73168;SDS011;61379;59.732;30.468;2023-11-22T01:19:34;10.15;;;7.03;;
73168;SDS011;61379;59.732;30.468;2023-11-22T01:22:00;7.95;;;5.28;;
73168;SDS011;61379;59.732;30.468;2023-11-22T01:24:27;8.18;;;5.57;;
73168;SDS011;61379;59.732;30.468;2023-11-22T01:26:56;8.10;;;5.43;;
73168;SDS011;61379;59.732;30.468;2023-11-22T01:29:22;10.63;;;5.60;;
73168;SDS011;61379;59.732;30.468;2023-11-22T01:31:49;7.65;;;5.57;;
73168;SDS011;61379;59.732;30.468;2023-11-22T01:34:16;7.20;;;5.07;;
73168;SDS011;61379;59.732;30.468;2023-11-22T01:36:43;5.65;;;4.95;;
73168;SDS011;61379;59.732;30.468;2023-11-22T01:39:10;9.23;;;5.43;;
73168;SDS011;61379;59.732;30.468;2023-11-22T01:41:37;8.23;;;5.07;;
73168;SDS011;61379;59.732;30.468;2023-11-22T01:44:06;6.85;;;5.15;;
73168;SDS011;61379;59.732;30.468;2023-11-22T01:46:32;6.65;;;4.97;;
73168;SDS011;61379;59.732;30.468;2023-11-22T01:48:59;7.18;;;5.75;;
73168;SDS011;61379;59.732;30.468;2023-11-22T01:51:26;8.55;;;6.00;;
73168;SDS011;61379;59.732;30.468;2023-11-22T01:53:54;9.98;;;6.40;;
73168;SDS011;61379;59.732;30.468;2023-11-22T01:56:22;7.35;;;5.85;;
73168;SDS011;61379;59.732;30.468;2023-11-22T01:58:49;7.80;;;5.97;;
73168;SDS011;61379;59.732;30.468;2023-11-22T02:01:17;11.05;;;6.20;;
73168;SDS011;61379;59.732;30.468;2023-11-22T02:03:45;9.77;;;7.97;;
73168;SDS011;61379;59.732;30.468;2023-11-22T02:06:14;8.05;;;6.05;;
73168;SDS011;61379;59.732;30.468;2023-11-22T02:08:41;5.57;;;4.82;;
73168;SDS011;61379;59.732;30.468;2023-11-22T02:11:09;10.68;;;6.97;;
73168;SDS011;61379;59.732;30.468;2023-11-22T02:13:36;10.35;;;6.85;;
73168;SDS011;61379;59.732;30.468;2023-11-22T02:16:03;6.38;;;5.25;;
73168;SDS011;61379;59.732;30.468;2023-11-22T02:18:31;8.07;;;6.43;;
73168;SDS011;61379;59.732;30.468;2023-11-22T02:21:00;6.68;;;5.47;;
73168;SDS011;61379;59.732;30.468;2023-11-22T02:23:28;9.05;;;6.35;;
73168;SDS011;61379;59.732;30.468;2023-11-22T02:25:55;7.38;;;6.05;;
73168;SDS011;61379;59.732;30.468;2023-11-22T02:28:21;7.38;;;6.63;;
73168;SDS011;61379;59.732;30.468;2023-11-22T02:30:48;9.57;;;7.53;;
73168;SDS011;61379;59.732;30.468;2023-11-22T02:33:15;9.07;;;6.65;;
73168;SDS011;61379;59.732;30.468;2023-11-22T02:35:42;9.88;;;6.72;;
73168;SDS011;61379;59.732;30.468;2023-11-22T02:38:09;9.40;;;7.10;;
73168;SDS011;61379;59.732;30.468;2023-11-22T02:40:37;9.13;;;7.53;;
73168;SDS011;61379;59.732;30.468;2023-11-22T02:43:03;7.57;;;6.35;;
73168;SDS011;61379;59.732;30.468;2023-11-22T02:45:34;7.60;;;6.82;;
73168;SDS011;61379;59.732;30.468;2023-11-22T02:48:01;10.90;;;7.75;;
73168;SDS011;61379;59.732;30.468;2023-11-22T02:50:29;7.53;;;6.80;;
73168;SDS011;61379;59.732;30.468;2023-11-22T02:52:57;12.32;;;7.20;;
73168;SDS011;61379;59.732;30.468;2023-11-22T02:55:23;7.22;;;6.53;;
73168;SDS011;61379;59.732;30.468;2023-11-22T02:57:52;12.43;;;7.97;;
73168;SDS011;61379;59.732;30.468;2023-11-22T03:00:18;11.88;;;8.48;;
73168;SDS011;61379;59.732;30.468;2023-11-22T03:02:45;9.88;;;7.82;;
73168;SDS011;61379;59.732;30.468;2023-11-22T03:05:13;10.88;;;7.82;;
73168;SDS011;61379;59.732;30.468;2023-11-22T03:07:40;8.93;;;7.85;;
73168;SDS011;61379;59.732;30.468;2023-11-22T03:10:08;9.50;;;7.28;;
73168;SDS011;61379;59.732;30.468;2023-11-22T03:12:35;8.57;;;6.85;;
73168;SDS011;61379;59.732;30.468;2023-11-22T03:15:04;9.23;;;8.02;;
73168;SDS011;61379;59.732;30.468;2023-11-22T03:19:59;8.80;;;6.13;;
73168;SDS011;61379;59.732;30.468;2023-11-22T03:22:29;6.55;;;5.60;;
73168;SDS011;61379;59.732;30.468;2023-11-22T03:24:57;9.85;;;6.70;;
73168;SDS011;61379;59.732;30.468;2023-11-22T03:27:25;8.32;;;6.90;;
73168;SDS011;61379;59.732;30.468;2023-11-22T03:29:52;7.93;;;6.43;;
73168;SDS011;61379;59.732;30.468;2023-11-22T03:32:20;8.93;;;7.07;;
73168;SDS011;61379;59.732;30.468;2023-11-22T03:34:47;7.45;;;6.75;;
73168;SDS011;61379;59.732;30.468;2023-11-22T03:37:14;6.43;;;5.82;;
73168;SDS011;61379;59.732;30.468;2023-11-22T03:39:40;9.50;;;5.95;;
73168;SDS011;61379;59.732;30.468;2023-11-22T03:42:13;7.18;;;6.40;;
73168;SDS011;61379;59.732;30.468;2023-11-22T03:44:40;7.18;;;5.43;;
73168;SDS011;61379;59.732;30.468;2023-11-22T03:47:07;9.43;;;6.38;;
73168;SDS011;61379;59.732;30.468;2023-11-22T03:49:35;8.85;;;6.30;;
73168;SDS011;61379;59.732;30.468;2023-11-22T03:52:01;8.63;;;7.72;;
73168;SDS011;61379;59.732;30.468;2023-11-22T03:54:28;9.40;;;6.45;;
73168;SDS011;61379;59.732;30.468;2023-11-22T03:56:55;9.75;;;6.40;;
73168;SDS011;61379;59.732;30.468;2023-11-22T03:59:22;10.75;;;7.90;;
73168;SDS011;61379;59.732;30.468;2023-11-22T04:01:49;7.60;;;6.05;;
73168;SDS011;61379;59.732;30.468;2023-11-22T04:04:16;8.18;;;7.38;;
73168;SDS011;61379;59.732;30.468;2023-11-22T04:06:44;8.00;;;6.13;;
73168;SDS011;61379;59.732;30.468;2023-11-22T04:09:11;7.72;;;6.93;;
73168;SDS011;61379;59.732;30.468;2023-11-22T04:11:38;7.35;;;6.63;;
73168;SDS011;61379;59.732;30.468;2023-11-22T04:14:05;7.18;;;6.57;;
73168;SDS011;61379;59.732;30.468;2023-11-22T04:16:32;9.35;;;7.88;;
73168;SDS011;61379;59.732;30.468;2023-11-22T04:18:58;8.60;;;7.22;;
73168;SDS011;61379;59.732;30.468;2023-11-22T04:21:25;10.38;;;7.30;;
73168;SDS011;61379;59.732;30.468;2023-11-22T04:23:53;8.93;;;7.40;;
73168;SDS011;61379;59.732;30.468;2023-11-22T04:26:20;9.43;;;7.40;;
73168;SDS011;61379;59.732;30.468;2023-11-22T04:28:47;10.88;;;8.13;;
73168;SDS011;61379;59.732;30.468;2023-11-22T04:31:14;9.30;;;7.70;;
73168;SDS011;61379;59.732;30.468;2023-11-22T04:33:40;10.00;;;7.65;;
73168;SDS011;61379;59.732;30.468;2023-11-22T04:36:07;12.07;;;7.82;;
73168;SDS011;61379;59.732;30.468;2023-11-22T04:38:34;12.00;;;7.28;;
73168;SDS011;61379;59.732;30.468;2023-11-22T04:41:02;11.15;;;8.40;;
73168;SDS011;61379;59.732;30.468;2023-11-22T04:43:29;10.43;;;8.32;;
73168;SDS011;61379;59.732;30.468;2023-11-22T04:45:56;9.45;;;7.90;;
73168;SDS011;61379;59.732;30.468;2023-11-22T04:48:24;7.07;;;6.28;;
73168;SDS011;61379;59.732;30.468;2023-11-22T04:50:50;9.70;;;8.02;;
73168;SDS011;61379;59.732;30.468;2023-11-22T04:53:18;10.68;;;8.55;;
73168;SDS011;61379;59.732;30.468;2023-11-22T04:55:45;9.07;;;7.55;;
73168;SDS011;61379;59.732;30.468;2023-11-22T04:58:13;21.23;;;7.88;;
73168;SDS011;61379;59.732;30.468;2023-11-22T05:00:40;12.43;;;7.70;;
73168;SDS011;61379;59.732;30.468;2023-11-22T05:03:07;11.30;;;8.23;;
73168;SDS011;61379;59.732;30.468;2023-11-22T05:05:33;10.75;;;7.65;;
73168;SDS011;61379;59.732;30.468;2023-11-22T05:08:00;8.75;;;7.85;;
73168;SDS011;61379;59.732;30.468;2023-11-22T05:10:28;10.40;;;8.10;;
73168;SDS011;61379;59.732;30.468;2023-11-22T05:12:54;9.18;;;6.70;;
73168;SDS011;61379;59.732;30.468;2023-11-22T05:15:26;9.50;;;7.88;;
73168;SDS011;61379;59.732;30.468;2023-11-22T05:17:53;9.85;;;7.10;;
73168;SDS011;61379;59.732;30.468;2023-11-22T05:20:19;12.48;;;8.70;;
73168;SDS011;61379;59.732;30.468;2023-11-22T05:22:46;17.45;;;11.45;;
73168;SDS011;61379;59.732;30.468;2023-11-22T05:25:13;16.35;;;11.40;;
73168;SDS011;61379;59.732;30.468;2023-11-22T05:27:40;16.00;;;10.18;;
73168;SDS011;61379;59.732;30.468;2023-11-22T05:30:07;7.68;;;6.95;;
73168;SDS011;61379;59.732;30.468;2023-11-22T05:32:37;9.13;;;7.35;;
73168;SDS011;61379;59.732;30.468;2023-11-22T05:35:04;13.38;;;7.53;;
73168;SDS011;61379;59.732;30.468;2023-11-22T05:37:35;8.70;;;7.38;;
73168;SDS011;61379;59.732;30.468;2023-11-22T05:40:02;9.38;;;7.05;;
73168;SDS011;61379;59.732;30.468;2023-11-22T05:42:30;11.65;;;8.00;;
73168;SDS011;61379;59.732;30.468;2023-11-22T05:44:57;8.50;;;7.63;;
73168;SDS011;61379;59.732;30.468;2023-11-22T05:47:24;7.45;;;6.85;;
73168;SDS011;61379;59.732;30.468;2023-11-22T05:49:52;8.98;;;8.20;;
73168;SDS011;61379;59.732;30.468;2023-11-22T05:52:19;11.90;;;7.63;;
73168;SDS011;61379;59.732;30.468;2023-11-22T05:54:47;8.93;;;8.13;;
73168;SDS011;61379;59.732;30.468;2023-11-22T05:57:14;10.68;;;7.93;;
73168;SDS011;61379;59.732;30.468;2023-11-22T05:59:41;10.05;;;8.43;;
73168;SDS011;61379;59.732;30.468;2023-11-22T06:02:08;17.13;;;8.20;;
73168;SDS011;61379;59.732;30.468;2023-11-22T06:04:35;10.00;;;8.73;;
73168;SDS011;61379;59.732;30.468;2023-11-22T06:07:03;8.77;;;7.88;;
73168;SDS011;61379;59.732;30.468;2023-11-22T06:09:30;10.95;;;8.00;;
73168;SDS011;61379;59.732;30.468;2023-11-22T06:11:57;9.23;;;8.25;;
73168;SDS011;61379;59.732;30.468;2023-11-22T06:14:23;8.65;;;7.80;;
73168;SDS011;61379;59.732;30.468;2023-11-22T06:16:50;9.40;;;8.35;;
73168;SDS011;61379;59.732;30.468;2023-11-22T06:19:17;8.43;;;7.45;;
73168;SDS011;61379;59.732;30.468;2023-11-22T06:21:43;8.02;;;7.22;;
73168;SDS011;61379;59.732;30.468;2023-11-22T06:24:12;8.02;;;6.97;;
73168;SDS011;61379;59.732;30.468;2023-11-22T06:29:07;13.73;;;10.27;;
73168;SDS011;61379;59.732;30.468;2023-11-22T06:31:34;8.02;;;7.22;;
73168;SDS011;61379;59.732;30.468;2023-11-22T06:34:01;8.48;;;7.68;;
73168;SDS011;61379;59.732;30.468;2023-11-22T06:36:28;14.65;;;10.07;;
73168;SDS011;61379;59.732;30.468;2023-11-22T06:38:56;8.77;;;8.00;;
73168;SDS011;61379;59.732;30.468;2023-11-22T06:41:24;10.05;;;7.32;;
73168;SDS011;61379;59.732;30.468;2023-11-22T06:43:51;9.13;;;6.90;;
73168;SDS011;61379;59.732;30.468;2023-11-22T06:46:18;8.55;;;7.07;;
73168;SDS011;61379;59.732;30.468;2023-11-22T06:48:45;17.77;;;12.52;;
73168;SDS011;61379;59.732;30.468;2023-11-22T06:51:13;20.75;;;13.02;;
73168;SDS011;61379;59.732;30.468;2023-11-22T06:53:40;10.40;;;8.38;;
73168;SDS011;61379;59.732;30.468;2023-11-22T06:56:07;8.32;;;7.55;;
73168;SDS011;61379;59.732;30.468;2023-11-22T06:58:35;7.35;;;6.65;;
73168;SDS011;61379;59.732;30.468;2023-11-22T07:01:02;7.07;;;6.47;;
73168;SDS011;61379;59.732;30.468;2023-11-22T07:03:29;6.80;;;6.20;;
73168;SDS011;61379;59.732;30.468;2023-11-22T07:05:56;9.25;;;7.63;;
73168;SDS011;61379;59.732;30.468;2023-11-22T07:08:24;7.90;;;7.07;;
73168;SDS011;61379;59.732;30.468;2023-11-22T07:10:53;11.15;;;9.32;;
73168;SDS011;61379;59.732;30.468;2023-11-22T07:13:22;8.93;;;8.05;;
73168;SDS011;61379;59.732;30.468;2023-11-22T07:15:51;8.98;;;8.27;;
73168;SDS011;61379;59.732;30.468;2023-11-22T07:18:19;6.85;;;6.35;;
73168;SDS011;61379;59.732;30.468;2023-11-22T07:20:49;7.30;;;6.65;;
73168;SDS011;61379;59.732;30.468;2023-11-22T07:23:18;6.60;;;6.13;;
73168;SDS011;61379;59.732;30.468;2023-11-22T07:25:46;7.00;;;6.32;;
73168;SDS011;61379;59.732;30.468;2023-11-22T07:28:13;6.50;;;6.00;;
73168;SDS011;61379;59.732;30.468;2023-11-22T07:30:40;6.10;;;5.70;;
73168;SDS011;61379;59.732;30.468;2023-11-22T07:33:08;6.68;;;6.18;;
73168;SDS011;61379;59.732;30.468;2023-11-22T07:35:36;6.28;;;5.78;;
73168;SDS011;61379;59.732;30.468;2023-11-22T07:38:04;8.25;;;6.30;;
73168;SDS011;61379;59.732;30.468;2023-11-22T07:40:33;6.50;;;6.00;;
73168;SDS011;61379;59.732;30.468;2023-11-22T07:43:00;7.50;;;6.72;;
73168;SDS011;61379;59.732;30.468;2023-11-22T07:45:30;6.57;;;5.97;;
73168;SDS011;61379;59.732;30.468;2023-11-22T07:47:57;6.88;;;6.40;;
73168;SDS011;61379;59.732;30.468;2023-11-22T07:50:26;7.18;;;6.68;;
73168;SDS011;61379;59.732;30.468;2023-11-22T07:52:52;6.68;;;6.13;;
73168;SDS011;61379;59.732;30.468;2023-11-22T07:55:20;6.95;;;6.45;;
73168;SDS011;61379;59.732;30.468;2023-11-22T07:57:47;7.53;;;6.82;;
73168;SDS011;61379;59.732;30.468;2023-11-22T08:00:14;7.82;;;6.95;;
73168;SDS011;61379;59.732;30.468;2023-11-22T08:02:44;6.75;;;6.10;;
73168;SDS011;61379;59.732;30.468;2023-11-22T08:05:11;8.00;;;5.88;;
73168;SDS011;61379;59.732;30.468;2023-11-22T08:07:42;5.13;;;4.78;;
73168;SDS011;61379;59.732;30.468;2023-11-22T08:10:11;6.53;;;5.93;;
73168;SDS011;61379;59.732;30.468;2023-11-22T08:12:44;5.90;;;5.50;;
73168;SDS011;61379;59.732;30.468;2023-11-22T08:15:12;6.50;;;5.90;;
73168;SDS011;61379;59.732;30.468;2023-11-22T08:17:39;7.30;;;6.68;;
73168;SDS011;61379;59.732;30.468;2023-11-22T08:20:06;5.80;;;5.40;;
73168;SDS011;61379;59.732;30.468;2023-11-22T08:22:37;5.82;;;5.32;;
73168;SDS011;61379;59.732;30.468;2023-11-22T08:25:06;6.18;;;5.60;;
73168;SDS011;61379;59.732;30.468;2023-11-22T08:27:33;6.43;;;5.80;;
73168;SDS011;61379;59.732;30.468;2023-11-22T08:30:00;6.88;;;6.28;;
73168;SDS011;61379;59.732;30.468;2023-11-22T08:32:30;6.80;;;6.13;;
73168;SDS011;61379;59.732;30.468;2023-11-22T08:34:58;6.43;;;5.88;;
73168;SDS011;61379;59.732;30.468;2023-11-22T08:37:25;6.50;;;6.03;;
73168;SDS011;61379;59.732;30.468;2023-11-22T08:39:51;6.65;;;6.15;;
73168;SDS011;61379;59.732;30.468;2023-11-22T08:42:20;6.63;;;6.03;;
73168;SDS011;61379;59.732;30.468;2023-11-22T08:44:48;6.43;;;5.65;;
73168;SDS011;61379;59.732;30.468;2023-11-22T08:47:15;7.32;;;6.72;;
73168;SDS011;61379;59.732;30.468;2023-11-22T08:49:43;6.70;;;6.20;;
73168;SDS011;61379;59.732;30.468;2023-11-22T08:52:09;6.53;;;6.03;;
73168;SDS011;61379;59.732;30.468;2023-11-22T08:54:36;5.93;;;5.50;;
73168;SDS011;61379;59.732;30.468;2023-11-22T08:57:03;5.70;;;5.30;;
73168;SDS011;61379;59.732;30.468;2023-11-22T08:59:32;5.60;;;5.20;;
73168;SDS011;61379;59.732;30.468;2023-11-22T09:02:04;6.40;;;5.80;;
73168;SDS011;61379;59.732;30.468;2023-11-22T09:04:32;6.25;;;5.75;;
73168;SDS011;61379;59.732;30.468;2023-11-22T09:07:00;5.47;;;5.07;;
73168;SDS011;61379;59.732;30.468;2023-11-22T09:09:27;6.22;;;5.72;;
73168;SDS011;61379;59.732;30.468;2023-11-22T09:11:56;5.60;;;5.15;;
73168;SDS011;61379;59.732;30.468;2023-11-22T09:14:23;5.88;;;5.30;;
73168;SDS011;61379;59.732;30.468;2023-11-22T09:16:52;5.07;;;4.63;;
73168;SDS011;61379;59.732;30.468;2023-11-22T09:21:46;6.15;;;5.55;;
73168;SDS011;61379;59.732;30.468;2023-11-22T09:24:13;9.82;;;7.07;;
73168;SDS011;61379;59.732;30.468;2023-11-22T09:26:40;9.38;;;7.03;;
73168;SDS011;61379;59.732;30.468;2023-11-22T09:29:08;5.50;;;5.10;;
73168;SDS011;61379;59.732;30.468;2023-11-22T09:31:34;6.30;;;5.72;;
73168;SDS011;61379;59.732;30.468;2023-11-22T09:34:03;6.13;;;5.68;;
73168;SDS011;61379;59.732;30.468;2023-11-22T09:36:30;6.28;;;5.47;;
73168;SDS011;61379;59.732;30.468;2023-11-22T09:38:59;6.10;;;5.60;;
73168;SDS011;61379;59.732;30.468;2023-11-22T09:41:28;5.97;;;5.57;;
73168;SDS011;61379;59.732;30.468;2023-11-22T09:43:55;5.53;;;5.13;;
73168;SDS011;61379;59.732;30.468;2023-11-22T09:46:22;7.65;;;5.45;;
73168;SDS011;61379;59.732;30.468;2023-11-22T09:48:49;7.18;;;6.47;;
73168;SDS011;61379;59.732;30.468;2023-11-22T09:51:21;5.80;;;5.18;;
73168;SDS011;61379;59.732;30.468;2023-11-22T09:53:52;5.57;;;5.18;;
73168;SDS011;61379;59.732;30.468;2023-11-22T09:56:19;6.13;;;5.53;;
73168;SDS011;61379;59.732;30.468;2023-11-22T09:58:46;6.03;;;5.53;;
73168;SDS011;61379;59.732;30.468;2023-11-22T10:01:16;5.55;;;5.05;;
73168;SDS011;61379;59.732;30.468;2023-11-22T10:03:43;5.97;;;5.47;;
73168;SDS011;61379;59.732;30.468;2023-11-22T10:06:10;6.22;;;5.72;;
73168;SDS011;61379;59.732;30.468;2023-11-22T10:08:38;6.03;;;5.50;;
73168;SDS011;61379;59.732;30.468;2023-11-22T10:11:06;5.30;;;4.90;;
73168;SDS011;61379;59.732;30.468;2023-11-22T10:13:33;5.28;;;4.88;;
73168;SDS011;61379;59.732;30.468;2023-11-22T10:16:08;6.03;;;5.43;;
73168;SDS011;61379;59.732;30.468;2023-11-22T10:18:37;8.38;;;7.28;;
73168;SDS011;61379;59.732;30.468;2023-11-22T10:21:15;7.20;;;6.45;;
73168;SDS011;61379;59.732;30.468;2023-11-22T10:23:46;5.97;;;5.18;;
73168;SDS011;61379;59.732;30.468;2023-11-22T10:26:14;5.68;;;5.28;;
73168;SDS011;61379;59.732;30.468;2023-11-22T10:28:41;5.80;;;5.30;;
73168;SDS011;61379;59.732;30.468;2023-11-22T10:31:08;5.22;;;4.82;;
73168;SDS011;61379;59.732;30.468;2023-11-22T10:33:38;6.53;;;6.03;;
73168;SDS011;61379;59.732;30.468;2023-11-22T10:36:05;6.07;;;5.40;;
73168;SDS011;61379;59.732;30.468;2023-11-22T10:38:33;4.70;;;4.38;;
73168;SDS011;61379;59.732;30.468;2023-11-22T10:41:04;6.95;;;6.35;;
73168;SDS011;61379;59.732;30.468;2023-11-22T10:43:31;7.40;;;6.80;;
73168;SDS011;61379;59.732;30.468;2023-11-22T10:46:00;5.35;;;4.95;;
73168;SDS011;61379;59.732;30.468;2023-11-22T10:48:27;5.75;;;5.25;;
73168;SDS011;61379;59.732;30.468;2023-11-22T10:50:55;10.00;;;9.00;;
73168;SDS011;61379;59.732;30.468;2023-11-22T10:53:26;6.93;;;6.22;;
73168;SDS011;61379;59.732;30.468;2023-11-22T10:55:56;7.38;;;6.65;;
73168;SDS011;61379;59.732;30.468;2023-11-22T10:58:25;6.28;;;5.75;;
73168;SDS011;61379;59.732;30.468;2023-11-22T11:00:54;5.65;;;5.25;;
73168;SDS011;61379;59.732;30.468;2023-11-22T11:03:21;5.22;;;4.93;;
73168;SDS011;61379;59.732;30.468;2023-11-22T11:05:54;5.45;;;5.05;;
73168;SDS011;61379;59.732;30.468;2023-11-22T11:08:23;5.47;;;4.97;;
73168;SDS011;61379;59.732;30.468;2023-11-22T11:10:52;6.55;;;5.95;;
73168;SDS011;61379;59.732;30.468;2023-11-22T11:13:21;5.78;;;5.32;;
73168;SDS011;61379;59.732;30.468;2023-11-22T11:15:50;6.65;;;6.05;;
73168;SDS011;61379;59.732;30.468;2023-11-22T11:18:18;9.90;;;7.78;;
73168;SDS011;61379;59.732;30.468;2023-11-22T11:20:46;6.97;;;6.35;;
73168;SDS011;61379;59.732;30.468;2023-11-22T11:23:15;7.07;;;6.47;;
73168;SDS011;61379;59.732;30.468;2023-11-22T11:25:42;6.93;;;6.43;;
73168;SDS011;61379;59.732;30.468;2023-11-22T11:28:10;6.30;;;5.90;;
73168;SDS011;61379;59.732;30.468;2023-11-22T11:30:40;6.85;;;6.22;;
73168;SDS011;61379;59.732;30.468;2023-11-22T11:33:09;6.75;;;6.15;;
73168;SDS011;61379;59.732;30.468;2023-11-22T11:35:38;8.07;;;7.43;;
73168;SDS011;61379;59.732;30.468;2023-11-22T11:38:05;7.95;;;7.05;;
73168;SDS011;61379;59.732;30.468;2023-11-22T11:40:34;7.18;;;6.63;;
73168;SDS011;61379;59.732;30.468;2023-11-22T11:43:01;7.45;;;6.85;;
73168;SDS011;61379;59.732;30.468;2023-11-22T11:45:28;6.05;;;5.55;;
73168;SDS011;61379;59.732;30.468;2023-11-22T11:47:56;6.75;;;6.18;;
73168;SDS011;61379;59.732;30.468;2023-11-22T11:50:25;16.88;;;11.25;;
73168;SDS011;61379;59.732;30.468;2023-11-22T11:52:52;15.27;;;9.63;;
73168;SDS011;61379;59.732;30.468;2023-11-22T11:55:18;10.77;;;9.57;;
73168;SDS011;61379;59.732;30.468;2023-11-22T11:57:45;11.30;;;9.30;;
73168;SDS011;61379;59.732;30.468;2023-11-22T12:00:13;8.85;;;7.95;;
73168;SDS011;61379;59.732;30.468;2023-11-22T12:02:40;7.10;;;6.50;;
73168;SDS011;61379;59.732;30.468;2023-11-22T12:05:07;7.78;;;7.18;;
73168;SDS011;61379;59.732;30.468;2023-11-22T12:07:36;6.72;;;6.13;;
73168;SDS011;61379;59.732;30.468;2023-11-22T12:10:03;6.95;;;6.45;;
73168;SDS011;61379;59.732;30.468;2023-11-22T12:12:31;6.55;;;6.05;;
73168;SDS011;61379;59.732;30.468;2023-11-22T12:14:58;5.68;;;5.22;;
73168;SDS011;61379;59.732;30.468;2023-11-22T12:17:25;5.65;;;5.25;;
73168;SDS011;61379;59.732;30.468;2023-11-22T12:19:52;5.40;;;4.90;;
73168;SDS011;61379;59.732;30.468;2023-11-22T12:22:18;6.60;;;6.00;;
73168;SDS011;61379;59.732;30.468;2023-11-22T12:24:47;6.97;;;6.28;;
73168;SDS011;61379;59.732;30.468;2023-11-22T12:27:13;7.20;;;5.93;;
73168;SDS011;61379;59.732;30.468;2023-11-22T12:29:40;7.13;;;6.43;;
73168;SDS011;61379;59.732;30.468;2023-11-22T12:32:07;7.03;;;5.55;;
73168;SDS011;61379;59.732;30.468;2023-11-22T12:34:34;6.78;;;6.18;;
73168;SDS011;61379;59.732;30.468;2023-11-22T12:37:01;4.75;;;4.45;;
73168;SDS011;61379;59.732;30.468;2023-11-22T12:39:29;5.90;;;5.47;;
73168;SDS011;61379;59.732;30.468;2023-11-22T12:41:59;6.28;;;5.78;;
73168;SDS011;61379;59.732;30.468;2023-11-22T12:44:26;7.07;;;6.55;;
73168;SDS011;61379;59.732;30.468;2023-11-22T12:46:53;5.70;;;5.30;;
73168;SDS011;61379;59.732;30.468;2023-11-22T12:49:22;7.28;;;6.57;;
73168;SDS011;61379;59.732;30.468;2023-11-22T12:51:49;7.65;;;7.05;;
73168;SDS011;61379;59.732;30.468;2023-11-22T12:54:17;7.82;;;6.70;;
73168;SDS011;61379;59.732;30.468;2023-11-22T12:56:47;5.50;;;5.10;;
73168;SDS011;61379;59.732;30.468;2023-11-22T12:59:17;7.43;;;6.78;;
73168;SDS011;61379;59.732;30.468;2023-11-22T13:01:44;7.75;;;6.35;;
73168;SDS011;61379;59.732;30.468;2023-11-22T13:04:11;7.88;;;7.13;;
73168;SDS011;61379;59.732;30.468;2023-11-22T13:06:41;10.07;;;7.40;;
73168;SDS011;61379;59.732;30.468;2023-11-22T13:09:08;10.10;;;8.80;;
73168;SDS011;61379;59.732;30.468;2023-11-22T13:11:40;6.97;;;6.38;;
73168;SDS011;61379;59.732;30.468;2023-11-22T13:14:07;8.55;;;7.72;;
73168;SDS011;61379;59.732;30.468;2023-11-22T13:16:35;8.70;;;6.95;;
73168;SDS011;61379;59.732;30.468;2023-11-22T13:21:30;7.93;;;7.22;;
73168;SDS011;61379;59.732;30.468;2023-11-22T13:23:57;7.05;;;6.45;;
73168;SDS011;61379;59.732;30.468;2023-11-22T13:26:25;5.93;;;5.43;;
73168;SDS011;61379;59.732;30.468;2023-11-22T13:28:52;8.73;;;7.07;;
73168;SDS011;61379;59.732;30.468;2023-11-22T13:31:20;7.13;;;6.40;;
73168;SDS011;61379;59.732;30.468;2023-11-22T13:33:49;8.68;;;6.38;;
73168;SDS011;61379;59.732;30.468;2023-11-22T13:36:17;6.65;;;6.00;;
73168;SDS011;61379;59.732;30.468;2023-11-22T13:38:44;7.32;;;5.90;;
73168;SDS011;61379;59.732;30.468;2023-11-22T13:41:11;7.15;;;6.47;;
73168;SDS011;61379;59.732;30.468;2023-11-22T13:43:37;7.93;;;6.28;;
73168;SDS011;61379;59.732;30.468;2023-11-22T13:46:04;7.97;;;6.00;;
73168;SDS011;61379;59.732;30.468;2023-11-22T13:48:32;6.32;;;5.53;;
73168;SDS011;61379;59.732;30.468;2023-11-22T13:51:00;6.57;;;5.93;;
73168;SDS011;61379;59.732;30.468;2023-11-22T13:53:28;8.10;;;5.85;;
73168;SDS011;61379;59.732;30.468;2023-11-22T13:55:59;6.22;;;5.55;;
73168;SDS011;61379;59.732;30.468;2023-11-22T13:58:27;8.05;;;7.00;;
73168;SDS011;61379;59.732;30.468;2023-11-22T14:00:54;7.78;;;7.07;;
73168;SDS011;61379;59.732;30.468;2023-11-22T14:03:20;9.30;;;5.93;;
73168;SDS011;61379;59.732;30.468;2023-11-22T14:05:47;7.82;;;7.03;;
73168;SDS011;61379;59.732;30.468;2023-11-22T14:08:15;6.38;;;5.85;;
73168;SDS011;61379;59.732;30.468;2023-11-22T14:10:42;8.20;;;5.75;;
73168;SDS011;61379;59.732;30.468;2023-11-22T14:13:10;6.75;;;5.72;;
73168;SDS011;61379;59.732;30.468;2023-11-22T14:15:37;7.40;;;6.70;;
73168;SDS011;61379;59.732;30.468;2023-11-22T14:18:04;6.70;;;6.03;;
73168;SDS011;61379;59.732;30.468;2023-11-22T14:20:31;5.40;;;4.90;;
73168;SDS011;61379;59.732;30.468;2023-11-22T14:23:00;5.60;;;5.20;;
73168;SDS011;61379;59.732;30.468;2023-11-22T14:25:28;5.95;;;5.47;;
73168;SDS011;61379;59.732;30.468;2023-11-22T14:27:54;8.38;;;6.40;;
73168;SDS011;61379;59.732;30.468;2023-11-22T14:30:22;5.53;;;5.00;;
73168;SDS011;61379;59.732;30.468;2023-11-22T14:32:51;7.30;;;6.63;;
73168;SDS011;61379;59.732;30.468;2023-11-22T15:05:09;10.32;;;8.68;;
73168;SDS011;61379;59.732;30.468;2023-11-22T15:07:39;10.55;;;9.55;;
73168;SDS011;61379;59.732;30.468;2023-11-22T15:10:07;9.63;;;8.63;;
73168;SDS011;61379;59.732;30.468;2023-11-22T15:12:34;10.40;;;9.02;;